createdAt,value
2022-11-14T00:02:40.027Z,55.80
2022-11-14T00:05:25.761Z,56.10
2022-11-14T00:08:18.818Z,37.00
2022-11-14T00:11:04.706Z,41.70
2022-11-14T00:13:50.597Z,53.40
2022-11-14T00:16:36.590Z,55.50
2022-11-14T00:19:22.378Z,32.80
2022-11-14T00:22:07.961Z,31.50
2022-11-14T00:24:53.646Z,54.00
2022-11-14T00:27:39.435Z,48.80
2022-11-14T00:30:25.690Z,45.40
2022-11-14T00:33:13.661Z,47.80
2022-11-14T00:36:03.051Z,42.10
2022-11-14T00:38:48.833Z,45.90
2022-11-14T00:41:34.416Z,35.90
2022-11-14T00:44:19.895Z,33.30
2022-11-14T00:47:05.583Z,48.20
2022-11-14T00:49:51.061Z,29.40
2022-11-14T00:52:37.465Z,37.30
2022-11-14T00:55:23.149Z,35.40
2022-11-14T00:58:09.774Z,32.60
2022-11-14T01:00:55.845Z,55.00
2022-11-14T01:03:41.437Z,45.40
2022-11-14T01:06:26.917Z,40.10
2022-11-14T01:09:12.967Z,31.30
2022-11-14T01:11:58.804Z,42.50
2022-11-14T01:14:44.485Z,24.80
2022-11-14T01:17:30.274Z,27.10
2022-11-14T01:20:17.495Z,54.20
2022-11-14T01:23:03.178Z,37.80
2022-11-14T01:25:48.966Z,44.40
2022-11-14T01:28:35.622Z,36.10
2022-11-14T01:31:25.209Z,49.10
2022-11-14T01:34:11.038Z,48.00
2022-11-14T01:36:56.628Z,39.60
2022-11-14T01:39:42.308Z,44.30
2022-11-14T01:42:27.994Z,46.00
2022-11-14T01:45:56.690Z,44.20
2022-11-14T01:49:20.310Z,27.00
2022-11-14T01:52:14.957Z,30.50
2022-11-14T01:55:04.432Z,36.30
2022-11-14T01:57:50.741Z,29.80
2022-11-14T02:00:36.414Z,41.30
2022-11-14T02:03:22.310Z,41.40
2022-11-14T02:06:11.677Z,37.00
2022-11-14T02:09:01.152Z,46.90
2022-11-14T02:11:47.401Z,49.10
2022-11-14T02:14:34.724Z,36.10
2022-11-14T02:17:30.073Z,44.70
2022-11-14T02:20:28.839Z,46.70
2022-11-14T02:23:15.139Z,33.50
2022-11-14T02:26:00.863Z,46.70
2022-11-14T02:28:47.982Z,33.60
2022-11-14T02:31:34.166Z,37.20
2022-11-14T02:34:20.461Z,42.10
2022-11-14T02:37:07.182Z,30.60
2022-11-14T02:39:52.880Z,46.30
2022-11-14T02:42:39.289Z,48.00
2022-11-14T02:45:25.229Z,37.00
2022-11-14T02:48:10.867Z,31.70
2022-11-14T02:50:56.454Z,34.90
2022-11-14T02:53:42.343Z,33.30
2022-11-14T02:56:28.337Z,29.90
2022-11-14T02:59:14.234Z,25.50
2022-11-14T03:01:59.935Z,31.10
2022-11-14T03:04:46.012Z,23.30
2022-11-14T03:07:33.153Z,23.40
2022-11-14T03:10:19.027Z,34.40
2022-11-14T03:13:04.821Z,33.70
2022-11-14T03:15:50.398Z,27.60
2022-11-14T03:18:37.182Z,21.70
2022-11-14T03:21:24.127Z,34.60
2022-11-14T03:24:10.018Z,19.50
2022-11-14T03:26:56.014Z,29.50
2022-11-14T03:29:41.472Z,24.80
2022-11-14T03:32:27.071Z,27.60
2022-11-14T03:35:12.756Z,21.90
2022-11-14T03:37:58.234Z,26.00
2022-11-14T03:40:43.920Z,21.80
2022-11-14T03:43:34.830Z,22.30
2022-11-14T03:46:20.722Z,32.80
2022-11-14T03:49:06.609Z,20.30
2022-11-14T03:51:52.703Z,28.70
2022-11-14T03:54:38.899Z,31.70
2022-11-14T03:57:24.684Z,29.40
2022-11-14T04:00:11.974Z,33.90
2022-11-14T04:02:58.203Z,21.30
2022-11-14T04:05:45.542Z,30.40
2022-11-14T04:08:32.269Z,24.70
2022-11-14T04:11:19.011Z,31.20
2022-11-14T04:14:04.742Z,22.90
2022-11-14T04:16:50.633Z,31.20
2022-11-14T04:19:36.683Z,22.30
2022-11-14T04:22:23.077Z,28.00
2022-11-14T04:25:10.044Z,19.80
2022-11-14T04:27:55.525Z,24.60
2022-11-14T04:30:42.639Z,34.00
2022-11-14T04:33:28.529Z,25.20
2022-11-14T04:36:14.155Z,30.40
2022-11-14T04:39:01.127Z,28.40
2022-11-14T04:41:46.817Z,29.80
2022-11-14T04:44:32.498Z,31.50
2022-11-14T04:47:18.287Z,30.50
2022-11-14T04:50:05.369Z,37.60
2022-11-14T04:52:54.369Z,34.00
2022-11-14T04:55:40.468Z,34.20
2022-11-14T04:58:26.871Z,44.90
2022-11-14T05:01:14.435Z,29.00
2022-11-14T05:04:00.212Z,31.60
2022-11-14T05:06:46.018Z,41.30
2022-11-14T05:09:31.651Z,32.30
2022-11-14T05:12:17.235Z,17.50
2022-11-14T05:15:02.927Z,22.80
2022-11-14T05:17:49.117Z,18.70
2022-11-14T05:20:35.114Z,24.20
2022-11-14T05:23:24.282Z,24.70
2022-11-14T05:26:13.554Z,19.90
2022-11-14T05:28:59.441Z,19.00
2022-11-14T05:31:44.819Z,16.80
2022-11-14T05:34:30.404Z,23.10
2022-11-14T05:37:16.092Z,17.60
2022-11-14T05:40:01.367Z,17.90
2022-11-14T05:42:47.158Z,19.10
2022-11-14T05:45:32.742Z,20.20
2022-11-14T05:48:18.627Z,15.70
2022-11-14T05:51:06.525Z,17.50
2022-11-14T05:53:52.352Z,21.50
2022-11-14T05:56:38.140Z,21.80
2022-11-14T05:59:24.028Z,20.30
